• Join FlightAware (Why Join?)
  • Login
  • US Flag 
01:09PM EDT


 

Airport Tracker/Info


-or-


 

Live Flight TrackerFlight Track Log ✈ AWE3417 ✈ 13-Jun-2013 ✈ KSDF - KDCA

Flight Track Log - Related Links

Times and Time Zones

All times are in EDT time to prevent confusion due to time zone crossing. See the AWE3417 flight status page for this flight to view local times or setup timezone preferences in your user account.

Time Position Orientation Groundspeed Altitude Reporting Facility
EDT Latitude Longitude Course Direction KTS MPH feet Rate Location/Type
08:46PM 38.2500 -85.7500 96° East 223 257 4,100  Level Louisville TRACON
08:47PM 38.2811 -85.7117 44° Northeast 274 315 5,800 3,240 Climbing Indianapolis Center
08:48PM 38.2731 -85.6194 96° East 299 344 9,100 2,520 Climbing Indianapolis Center
08:49PM 38.2008 -85.5453 141° Southeast 334 384 11,000 1,860 Climbing Indianapolis Center
08:50PM 38.1425 -85.4344 124° Southeast 377 434 13,000 2,040 Climbing Indianapolis Center
08:51PM 38.1478 -85.3000 87° East 382 440 15,300 2,280 Climbing Indianapolis Center
08:52PM 38.0061 -84.8224 96° East  Level FlightAware Approximate
08:52PM 38.1594 -85.1458 84° East 392 451 17,700  Level Indianapolis Center
08:53PM 38.1692 -85.0014 85° East 405 466 19,700 1,800 Climbing Indianapolis Center
08:54PM 38.1797 -84.8478 85° East 428 493 21,500 1,560 Climbing Indianapolis Center
08:55PM 38.1911 -84.6919 85° East 439 505 23,000 720 Climbing Indianapolis Center
08:56PM 38.2008 -84.5333 85° East 447 514 23,000  Level Indianapolis Center
08:57PM 38.2114 -84.3758 85° East 447 514 23,000  Level Indianapolis Center
08:58PM 38.2222 -84.1911 86° East 449 517 23,000  Level Indianapolis Center
08:59PM 38.2333 -84.0308 85° East 452 520 23,000  Level Indianapolis Center
09:00PM 38.2431 -83.8733 85° East 449 517 23,000  Level Indianapolis Center
09:01PM 38.2525 -83.7153 86° East 446 513 23,000  Level Indianapolis Center
09:02PM 38.2606 -83.5567 86° East 447 514 23,000  Level Indianapolis Center
09:03PM 38.2703 -83.4003 85° East 445 512 23,000  Level Indianapolis Center
09:04PM 38.2783 -83.2414 86° East 447 514 23,000  Level Indianapolis Center
09:05PM 38.2881 -83.0550 86° East 449 517 23,000  Level Indianapolis Center
09:06PM 38.2967 -82.8964 86° East 449 517 23,000  Level Indianapolis Center
09:08PM 38.3042 -82.7372 87° East 449 517 23,000  Level Indianapolis Center
09:09PM 38.3125 -82.5761 86° East 454 522 23,000  Level Indianapolis Center
09:10PM 38.3208 -82.4222 86° East 456 525 23,000  Level Indianapolis Center
09:11PM 38.3278 -82.2631 87° East 453 521 23,000  Level Indianapolis Center
09:12PM 38.3369 -82.0700 86° East 455 524 23,000  Level Indianapolis Center
09:13PM 38.3447 -81.9106 86° East 454 522 23,000  Level Indianapolis Center
09:14PM 38.3492 -81.7506 88° East 454 522 23,000  Level Indianapolis Center
09:15PM 38.3447 -81.5894 92° East 458 527 23,000  Level Indianapolis Center
09:16PM 38.3383 -81.4289 93° East 460 529 23,000  Level Indianapolis Center
09:17PM 38.3331 -81.2689 92° East 456 525 23,000  Level Indianapolis Center
09:18PM 38.3267 -81.0767 92° East 456 525 23,000  Level Indianapolis Center
09:19PM 38.3192 -80.9164 93° East 455 524 23,000  Level Indianapolis Center
09:20PM 38.3139 -80.7542 92° East 459 528 23,000  Level Indianapolis Center
09:21PM 38.3097 -80.6222 92° East 457 526 23,000  Level Washington Center
09:22PM 38.3031 -80.4789 93° East 467 537 23,000  Level Washington Center
09:23PM 38.3033 -80.3175 90° East 460 529 23,000  Level Washington Center
09:24PM 38.3261 -80.1600 80° East 448 516 23,000  Level Washington Center
09:25PM 38.3486 -80.0053 79° East 448 516 23,000  Level Washington Center
09:26PM 38.3756 -79.8372 78° East 443 510 23,000  Level Washington Center
09:27PM 38.3975 -79.6822 80° East 443 510 23,000  Level Washington Center
09:28PM 38.4194 -79.5297 80° East 443 510 23,000  Level Washington Center
09:29PM 38.4408 -79.3797 80° East 443 510 23,000  Level Washington Center
09:30PM 38.4619 -79.2375 79° East 448 516 23,000  Level Washington Center
09:31PM 38.4811 -79.0847 81° East 443 510 23,000  Level Washington Center
09:32PM 38.5019 -78.9425 79° East 436 502 23,000 -540 Level Washington Center
09:33PM 38.5203 -78.8025 80° East 411 473 22,000 -1,020 Descending Washington Center
09:34PM 38.5383 -78.6706 80° East 391 450 21,000 -540 Descending Washington Center
09:35PM 38.5542 -78.5386 81° East 386 444 21,000  Level Washington Center
09:36PM 38.5719 -78.4039 80° East 381 438 21,000 -420 Level Washington Center
09:37PM 38.5939 -78.2719 78° East 381 438 20,200 -1,380 Descending Washington Center
09:38PM 38.6297 -78.1508 69° East 370 426 18,300 -2,160 Descending Washington Center
09:39PM 38.6656 -78.0350 68° East 359 413 16,000 -2,160 Descending Washington Center
09:40PM 38.7033 -77.9219 67° East 348 400 14,100 -1,560 Descending Washington Center
09:41PM 38.7406 -77.8167 66° East 341 392 12,900 -1,320 Descending Washington Center
09:42PM 38.8006 -77.7306 48° Northeast 321 369 11,500 -1,380 Descending Washington Center
09:43PM 38.8461 -77.6361 58° Northeast 311 358 10,200 -1,320 Descending Washington Center
09:44PM 38.8853 -77.5250 66° East 306 352 8,900 -1,320 Descending Washington Center
09:45PM 38.9000 -77.4167 80° East 306 352 7,700 -1,440 Descending Potomac TRACON
09:46PM 38.8500 -77.3333 128° Southeast 313 360 6,200 -1,200 Descending Potomac TRACON
09:47PM 38.8167 -77.2167 110° East 309 356 5,300 -1,140 Descending Potomac TRACON
09:48PM 38.7833 -77.1500 123° Southeast 301 346 4,100 -720 Descending Potomac TRACON
09:49PM 38.7000 -77.1167 163° South 245 282 4,000 -480 Descending Potomac TRACON
09:50PM 38.6500 -77.0833 152° Southeast 246 283 3,200 -540 Descending Potomac TRACON
09:51PM 38.6833 -77.0333 49° Northeast 166 191 3,000 -240 Descending Potomac TRACON